sensor_id;sensor_type;location;lat;lon;timestamp;pressure;altitude;pressure_sealevel;temperature;humidity
37486;BME280;23341;50.296;18.960;2023-12-20T00:00:13;48083.72;;;-144.43;100.00
37486;BME280;23341;50.296;18.960;2023-12-20T00:05:39;48113.69;;;-144.43;100.00
37486;BME280;23341;50.296;18.960;2023-12-20T00:10:44;48109.69;;;-144.43;100.00
37486;BME280;23341;50.296;18.960;2023-12-20T00:15:48;48091.69;;;-144.43;100.00
37486;BME280;23341;50.296;18.960;2023-12-20T00:20:54;48097.69;;;-144.43;100.00
37486;BME280;23341;50.296;18.960;2023-12-20T00:25:59;48099.69;;;-144.43;100.00
37486;BME280;23341;50.296;18.960;2023-12-20T00:31:03;48095.69;;;-144.43;100.00
37486;BME280;23341;50.296;18.960;2023-12-20T00:36:09;48095.69;;;-144.43;100.00
37486;BME280;23341;50.296;18.960;2023-12-20T00:41:14;48095.69;;;-144.43;100.00
37486;BME280;23341;50.296;18.960;2023-12-20T00:46:18;48103.69;;;-144.43;100.00
37486;BME280;23341;50.296;18.960;2023-12-20T00:51:24;48097.69;;;-144.43;100.00
37486;BME280;23341;50.296;18.960;2023-12-20T00:56:29;48115.66;;;-144.43;100.00
37486;BME280;23341;50.296;18.960;2023-12-20T01:01:33;48099.69;;;-144.43;100.00
37486;BME280;23341;50.296;18.960;2023-12-20T01:06:39;48103.69;;;-144.43;100.00
37486;BME280;23341;50.296;18.960;2023-12-20T01:11:43;48091.69;;;-144.43;100.00
37486;BME280;23341;50.296;18.960;2023-12-20T01:16:49;48091.69;;;-144.43;100.00
37486;BME280;23341;50.296;18.960;2023-12-20T01:21:55;48089.69;;;-144.43;100.00
37486;BME280;23341;50.296;18.960;2023-12-20T01:26:59;48095.69;;;-144.43;100.00
37486;BME280;23341;50.296;18.960;2023-12-20T01:32:04;48129.66;;;-144.43;100.00
37486;BME280;23341;50.296;18.960;2023-12-20T01:37:10;48075.72;;;-144.43;100.00
37486;BME280;23341;50.296;18.960;2023-12-20T01:42:15;48069.72;;;-144.43;100.00
37486;BME280;23341;50.296;18.960;2023-12-20T01:47:20;48095.69;;;-144.43;100.00
37486;BME280;23341;50.296;18.960;2023-12-20T01:52:27;48085.69;;;-144.43;95.07
37486;BME280;23341;50.296;18.960;2023-12-20T01:57:31;48139.66;;;-144.43;91.24
37486;BME280;23341;50.296;18.960;2023-12-20T02:02:36;48121.66;;;-144.43;90.22
37486;BME280;23341;50.296;18.960;2023-12-20T02:07:45;48095.69;;;-144.43;92.35
37486;BME280;23341;50.296;18.960;2023-12-20T02:12:51;48129.66;;;-144.43;90.75
37486;BME280;23341;50.296;18.960;2023-12-20T02:17:56;48119.66;;;-144.43;90.02
37486;BME280;23341;50.296;18.960;2023-12-20T02:23:02;48129.66;;;-144.43;89.34
37486;BME280;23341;50.296;18.960;2023-12-20T02:28:06;48091.69;;;-144.43;87.25
37486;BME280;23341;50.296;18.960;2023-12-20T02:33:12;48135.66;;;-144.43;87.55
37486;BME280;23341;50.296;18.960;2023-12-20T02:38:19;48097.69;;;-144.43;88.43
37486;BME280;23341;50.296;18.960;2023-12-20T02:43:24;48111.69;;;-144.43;90.24
37486;BME280;23341;50.296;18.960;2023-12-20T02:48:29;48091.69;;;-144.43;94.71
37486;BME280;23341;50.296;18.960;2023-12-20T02:53:35;48115.66;;;-144.43;97.45
37486;BME280;23341;50.296;18.960;2023-12-20T02:58:39;48087.69;;;-144.43;100.00
37486;BME280;23341;50.296;18.960;2023-12-20T03:03:44;48091.69;;;-144.43;100.00
37486;BME280;23341;50.296;18.960;2023-12-20T03:08:49;48103.69;;;-144.43;100.00
37486;BME280;23341;50.296;18.960;2023-12-20T03:13:54;48093.69;;;-144.43;100.00
37486;BME280;23341;50.296;18.960;2023-12-20T03:18:59;48079.72;;;-144.43;100.00
37486;BME280;23341;50.296;18.960;2023-12-20T03:24:05;48107.69;;;-144.43;100.00
37486;BME280;23341;50.296;18.960;2023-12-20T03:29:10;48063.72;;;-144.43;100.00
37486;BME280;23341;50.296;18.960;2023-12-20T03:34:14;48079.72;;;-144.43;100.00
37486;BME280;23341;50.296;18.960;2023-12-20T03:39:20;48109.69;;;-144.43;100.00
37486;BME280;23341;50.296;18.960;2023-12-20T03:44:25;48095.69;;;-144.43;100.00
37486;BME280;23341;50.296;18.960;2023-12-20T03:49:29;48085.69;;;-144.43;100.00
37486;BME280;23341;50.296;18.960;2023-12-20T03:54:36;48093.69;;;-144.43;100.00
37486;BME280;23341;50.296;18.960;2023-12-20T03:59:41;48083.72;;;-144.43;100.00
37486;BME280;23341;50.296;18.960;2023-12-20T04:04:45;48055.72;;;-144.43;100.00
37486;BME280;23341;50.296;18.960;2023-12-20T04:09:51;48105.69;;;-144.43;100.00
37486;BME280;23341;50.296;18.960;2023-12-20T04:14:56;48075.72;;;-144.43;100.00
37486;BME280;23341;50.296;18.960;2023-12-20T04:20:01;48041.75;;;-144.43;100.00
37486;BME280;23341;50.296;18.960;2023-12-20T04:25:08;48053.75;;;-144.43;100.00
37486;BME280;23341;50.296;18.960;2023-12-20T04:30:13;48075.72;;;-144.43;100.00
37486;BME280;23341;50.296;18.960;2023-12-20T04:35:18;48081.72;;;-144.43;100.00
37486;BME280;23341;50.296;18.960;2023-12-20T04:40:24;48075.72;;;-144.43;100.00
37486;BME280;23341;50.296;18.960;2023-12-20T04:45:28;48075.72;;;-144.43;100.00
37486;BME280;23341;50.296;18.960;2023-12-20T04:50:33;48059.72;;;-144.43;100.00
37486;BME280;23341;50.296;18.960;2023-12-20T04:55:39;48083.72;;;-144.43;100.00
37486;BME280;23341;50.296;18.960;2023-12-20T05:00:43;48103.69;;;-144.43;100.00
37486;BME280;23341;50.296;18.960;2023-12-20T05:05:49;48065.72;;;-144.43;100.00
37486;BME280;23341;50.296;18.960;2023-12-20T05:10:55;48081.72;;;-144.43;100.00
37486;BME280;23341;50.296;18.960;2023-12-20T05:16:00;48093.69;;;-144.43;100.00
37486;BME280;23341;50.296;18.960;2023-12-20T05:21:05;48069.72;;;-144.43;100.00
37486;BME280;23341;50.296;18.960;2023-12-20T05:26:11;48073.72;;;-144.43;100.00
37486;BME280;23341;50.296;18.960;2023-12-20T05:31:15;48051.75;;;-144.43;100.00
37486;BME280;23341;50.296;18.960;2023-12-20T05:36:20;48067.72;;;-144.43;100.00
37486;BME280;23341;50.296;18.960;2023-12-20T05:41:26;48073.72;;;-144.43;100.00
37486;BME280;23341;50.296;18.960;2023-12-20T05:46:30;48075.72;;;-144.43;100.00
37486;BME280;23341;50.296;18.960;2023-12-20T05:51:34;48079.72;;;-144.43;100.00
37486;BME280;23341;50.296;18.960;2023-12-20T05:56:40;48049.75;;;-144.43;100.00
37486;BME280;23341;50.296;18.960;2023-12-20T06:01:45;48083.72;;;-144.43;100.00
37486;BME280;23341;50.296;18.960;2023-12-20T06:06:50;48079.72;;;-144.43;100.00
37486;BME280;23341;50.296;18.960;2023-12-20T06:11:56;48067.72;;;-144.43;100.00
37486;BME280;23341;50.296;18.960;2023-12-20T06:17:00;48093.69;;;-144.43;100.00
37486;BME280;23341;50.296;18.960;2023-12-20T06:22:05;48075.72;;;-144.43;100.00
37486;BME280;23341;50.296;18.960;2023-12-20T06:27:11;48051.75;;;-144.43;100.00
37486;BME280;23341;50.296;18.960;2023-12-20T06:32:16;48107.69;;;-144.43;100.00
37486;BME280;23341;50.296;18.960;2023-12-20T06:37:21;48107.69;;;-144.43;100.00
37486;BME280;23341;50.296;18.960;2023-12-20T06:42:27;48069.72;;;-144.43;100.00
37486;BME280;23341;50.296;18.960;2023-12-20T06:47:37;48071.72;;;-144.43;100.00
37486;BME280;23341;50.296;18.960;2023-12-20T06:52:42;48027.75;;;-144.43;100.00
37486;BME280;23341;50.296;18.960;2023-12-20T06:57:48;48081.72;;;-144.43;100.00
37486;BME280;23341;50.296;18.960;2023-12-20T07:02:54;48051.75;;;-144.43;100.00
37486;BME280;23341;50.296;18.960;2023-12-20T07:07:58;48103.69;;;-144.43;100.00
37486;BME280;23341;50.296;18.960;2023-12-20T07:13:05;48077.72;;;-144.43;100.00
37486;BME280;23341;50.296;18.960;2023-12-20T07:18:09;48057.72;;;-144.43;100.00
37486;BME280;23341;50.296;18.960;2023-12-20T07:23:14;48079.72;;;-144.43;100.00
37486;BME280;23341;50.296;18.960;2023-12-20T07:28:20;48051.75;;;-144.43;100.00
37486;BME280;23341;50.296;18.960;2023-12-20T07:33:24;48073.72;;;-144.43;100.00
37486;BME280;23341;50.296;18.960;2023-12-20T07:38:29;48077.72;;;-144.43;100.00
37486;BME280;23341;50.296;18.960;2023-12-20T07:43:35;48061.72;;;-144.43;100.00
37486;BME280;23341;50.296;18.960;2023-12-20T07:48:39;48049.75;;;-144.43;100.00
37486;BME280;23341;50.296;18.960;2023-12-20T07:53:48;48029.75;;;-144.43;100.00
37486;BME280;23341;50.296;18.960;2023-12-20T07:58:54;48055.72;;;-144.43;100.00
37486;BME280;23341;50.296;18.960;2023-12-20T08:04:02;48073.72;;;-144.43;100.00
37486;BME280;23341;50.296;18.960;2023-12-20T08:09:07;48063.72;;;-144.43;100.00
37486;BME280;23341;50.296;18.960;2023-12-20T08:14:13;48053.75;;;-144.43;100.00
37486;BME280;23341;50.296;18.960;2023-12-20T08:19:19;48045.75;;;-144.43;100.00
37486;BME280;23341;50.296;18.960;2023-12-20T08:24:24;48063.72;;;-144.43;100.00
37486;BME280;23341;50.296;18.960;2023-12-20T08:29:30;48055.72;;;-144.43;100.00
37486;BME280;23341;50.296;18.960;2023-12-20T08:34:35;48063.72;;;-144.43;100.00
37486;BME280;23341;50.296;18.960;2023-12-20T08:39:40;48047.75;;;-144.43;100.00
37486;BME280;23341;50.296;18.960;2023-12-20T08:44:49;48049.75;;;-144.43;100.00
37486;BME280;23341;50.296;18.960;2023-12-20T08:49:54;48059.72;;;-144.43;100.00
37486;BME280;23341;50.296;18.960;2023-12-20T08:55:01;48069.72;;;-144.43;100.00
37486;BME280;23341;50.296;18.960;2023-12-20T09:00:09;48047.75;;;-144.43;100.00
37486;BME280;23341;50.296;18.960;2023-12-20T09:05:13;48051.75;;;-144.43;100.00
37486;BME280;23341;50.296;18.960;2023-12-20T09:10:18;48039.75;;;-144.43;100.00
37486;BME280;23341;50.296;18.960;2023-12-20T09:15:27;48047.75;;;-144.43;100.00
37486;BME280;23341;50.296;18.960;2023-12-20T09:20:37;48057.72;;;-144.43;100.00
37486;BME280;23341;50.296;18.960;2023-12-20T09:25:46;48051.75;;;-144.43;100.00
37486;BME280;23341;50.296;18.960;2023-12-20T09:30:52;48057.72;;;-144.43;100.00
37486;BME280;23341;50.296;18.960;2023-12-20T09:35:56;48067.72;;;-144.43;100.00
37486;BME280;23341;50.296;18.960;2023-12-20T09:41:01;48045.75;;;-144.43;100.00
37486;BME280;23341;50.296;18.960;2023-12-20T09:46:12;48065.72;;;-144.43;100.00
37486;BME280;23341;50.296;18.960;2023-12-20T09:51:21;48091.69;;;-144.43;100.00
37486;BME280;23341;50.296;18.960;2023-12-20T09:56:26;48087.69;;;-144.43;100.00
37486;BME280;23341;50.296;18.960;2023-12-20T10:01:34;48059.72;;;-144.43;100.00
37486;BME280;23341;50.296;18.960;2023-12-20T10:06:40;48067.72;;;-144.43;100.00
37486;BME280;23341;50.296;18.960;2023-12-20T10:11:45;48091.69;;;-144.43;100.00
37486;BME280;23341;50.296;18.960;2023-12-20T10:16:51;48073.72;;;-144.43;100.00
37486;BME280;23341;50.296;18.960;2023-12-20T10:21:58;48073.72;;;-144.43;100.00
37486;BME280;23341;50.296;18.960;2023-12-20T10:27:04;48061.72;;;-144.43;100.00
37486;BME280;23341;50.296;18.960;2023-12-20T10:32:24;48097.69;;;-144.43;100.00
37486;BME280;23341;50.296;18.960;2023-12-20T10:37:29;48065.72;;;-144.43;100.00
37486;BME280;23341;50.296;18.960;2023-12-20T10:42:35;48093.69;;;-144.43;100.00
37486;BME280;23341;50.296;18.960;2023-12-20T10:47:42;48063.72;;;-144.43;100.00
37486;BME280;23341;50.296;18.960;2023-12-20T10:52:47;48071.72;;;-144.43;100.00
37486;BME280;23341;50.296;18.960;2023-12-20T10:57:53;48063.72;;;-144.43;100.00
37486;BME280;23341;50.296;18.960;2023-12-20T11:03:01;48085.69;;;-144.43;100.00
37486;BME280;23341;50.296;18.960;2023-12-20T11:08:10;48055.72;;;-144.43;100.00
37486;BME280;23341;50.296;18.960;2023-12-20T11:13:21;48047.75;;;-144.43;100.00
37486;BME280;23341;50.296;18.960;2023-12-20T11:18:30;48123.66;;;-144.43;100.00
37486;BME280;23341;50.296;18.960;2023-12-20T11:23:35;48069.72;;;-144.43;100.00
37486;BME280;23341;50.296;18.960;2023-12-20T11:28:39;48071.72;;;-144.43;100.00
37486;BME280;23341;50.296;18.960;2023-12-20T11:33:46;48049.75;;;-144.43;100.00
37486;BME280;23341;50.296;18.960;2023-12-20T11:38:56;48073.72;;;-144.43;100.00
37486;BME280;23341;50.296;18.960;2023-12-20T11:44:04;48043.75;;;-144.43;100.00
37486;BME280;23341;50.296;18.960;2023-12-20T11:49:10;48041.75;;;-144.43;100.00
37486;BME280;23341;50.296;18.960;2023-12-20T11:54:16;48099.69;;;-144.43;100.00
37486;BME280;23341;50.296;18.960;2023-12-20T11:59:21;48059.72;;;-144.43;100.00
37486;BME280;23341;50.296;18.960;2023-12-20T12:04:27;48083.72;;;-144.43;100.00
37486;BME280;23341;50.296;18.960;2023-12-20T12:09:32;48061.72;;;-144.43;100.00
37486;BME280;23341;50.296;18.960;2023-12-20T12:14:37;48073.72;;;-144.43;100.00
37486;BME280;23341;50.296;18.960;2023-12-20T12:19:44;48091.69;;;-144.43;100.00
37486;BME280;23341;50.296;18.960;2023-12-20T12:24:49;48059.72;;;-144.43;100.00
37486;BME280;23341;50.296;18.960;2023-12-20T12:30:00;48047.75;;;-144.43;100.00
37486;BME280;23341;50.296;18.960;2023-12-20T12:35:09;48051.75;;;-144.43;100.00
37486;BME280;23341;50.296;18.960;2023-12-20T12:40:14;48059.72;;;-144.43;100.00
37486;BME280;23341;50.296;18.960;2023-12-20T12:45:19;48067.72;;;-144.43;100.00
37486;BME280;23341;50.296;18.960;2023-12-20T12:50:26;48091.69;;;-144.43;100.00
37486;BME280;23341;50.296;18.960;2023-12-20T12:55:32;48049.75;;;-144.43;100.00
37486;BME280;23341;50.296;18.960;2023-12-20T13:00:37;48099.69;;;-144.43;100.00
37486;BME280;23341;50.296;18.960;2023-12-20T13:05:43;48095.69;;;-144.43;100.00
37486;BME280;23341;50.296;18.960;2023-12-20T13:10:49;48079.72;;;-144.43;100.00
37486;BME280;23341;50.296;18.960;2023-12-20T13:15:53;48073.72;;;-144.43;100.00
37486;BME280;23341;50.296;18.960;2023-12-20T13:20:59;48077.72;;;-144.43;100.00
37486;BME280;23341;50.296;18.960;2023-12-20T13:26:04;48089.69;;;-144.43;100.00
37486;BME280;23341;50.296;18.960;2023-12-20T13:31:08;48085.69;;;-144.43;100.00
37486;BME280;23341;50.296;18.960;2023-12-20T13:36:14;48081.72;;;-144.43;100.00
37486;BME280;23341;50.296;18.960;2023-12-20T13:41:19;48073.72;;;-144.43;100.00
37486;BME280;23341;50.296;18.960;2023-12-20T13:46:23;48087.69;;;-144.43;100.00
37486;BME280;23341;50.296;18.960;2023-12-20T13:51:29;48075.72;;;-144.43;100.00
37486;BME280;23341;50.296;18.960;2023-12-20T13:56:34;48057.72;;;-144.43;100.00
37486;BME280;23341;50.296;18.960;2023-12-20T14:01:49;48089.69;;;-144.43;100.00
37486;BME280;23341;50.296;18.960;2023-12-20T14:06:56;48069.72;;;-144.43;100.00
37486;BME280;23341;50.296;18.960;2023-12-20T14:12:01;48071.72;;;-144.43;100.00
37486;BME280;23341;50.296;18.960;2023-12-20T14:17:05;48073.72;;;-144.43;100.00
37486;BME280;23341;50.296;18.960;2023-12-20T14:22:12;48075.72;;;-144.43;100.00
37486;BME280;23341;50.296;18.960;2023-12-20T14:27:20;48055.72;;;-144.43;100.00
37486;BME280;23341;50.296;18.960;2023-12-20T14:32:27;48099.69;;;-144.43;100.00
37486;BME280;23341;50.296;18.960;2023-12-20T14:37:33;48063.72;;;-144.43;100.00
37486;BME280;23341;50.296;18.960;2023-12-20T14:42:38;48051.75;;;-144.43;100.00
37486;BME280;23341;50.296;18.960;2023-12-20T14:47:42;48059.72;;;-144.43;100.00
37486;BME280;23341;50.296;18.960;2023-12-20T14:52:49;48089.69;;;-144.43;100.00
37486;BME280;23341;50.296;18.960;2023-12-20T14:57:56;48059.72;;;-144.43;100.00
37486;BME280;23341;50.296;18.960;2023-12-20T15:03:01;48075.72;;;-144.43;100.00
37486;BME280;23341;50.296;18.960;2023-12-20T15:08:09;48099.69;;;-144.43;100.00
37486;BME280;23341;50.296;18.960;2023-12-20T15:13:14;48069.72;;;-144.43;100.00
37486;BME280;23341;50.296;18.960;2023-12-20T15:18:18;48083.72;;;-144.43;100.00
37486;BME280;23341;50.296;18.960;2023-12-20T15:23:24;48071.72;;;-144.43;100.00
37486;BME280;23341;50.296;18.960;2023-12-20T15:28:31;48065.72;;;-144.43;100.00
37486;BME280;23341;50.296;18.960;2023-12-20T15:33:36;48079.72;;;-144.43;100.00
37486;BME280;23341;50.296;18.960;2023-12-20T15:38:42;48071.72;;;-144.43;100.00
37486;BME280;23341;50.296;18.960;2023-12-20T15:43:46;48071.72;;;-144.43;100.00
37486;BME280;23341;50.296;18.960;2023-12-20T15:48:51;48061.72;;;-144.43;100.00
37486;BME280;23341;50.296;18.960;2023-12-20T15:53:57;48089.69;;;-144.43;100.00
37486;BME280;23341;50.296;18.960;2023-12-20T15:59:06;48093.69;;;-144.43;100.00
37486;BME280;23341;50.296;18.960;2023-12-20T16:04:11;48099.69;;;-144.43;100.00
37486;BME280;23341;50.296;18.960;2023-12-20T16:09:17;48091.69;;;-144.43;100.00
37486;BME280;23341;50.296;18.960;2023-12-20T16:14:22;48075.72;;;-144.43;100.00
37486;BME280;23341;50.296;18.960;2023-12-20T16:19:28;48083.72;;;-144.43;100.00
37486;BME280;23341;50.296;18.960;2023-12-20T16:24:34;48089.69;;;-144.43;100.00
37486;BME280;23341;50.296;18.960;2023-12-20T16:29:39;48083.72;;;-144.43;100.00
37486;BME280;23341;50.296;18.960;2023-12-20T16:34:43;48067.72;;;-144.43;100.00
37486;BME280;23341;50.296;18.960;2023-12-20T16:39:50;48057.72;;;-144.43;100.00
37486;BME280;23341;50.296;18.960;2023-12-20T16:44:54;48053.75;;;-144.43;100.00
37486;BME280;23341;50.296;18.960;2023-12-20T16:49:59;48031.75;;;-144.43;100.00
37486;BME280;23341;50.296;18.960;2023-12-20T16:55:08;48083.72;;;-144.43;100.00
37486;BME280;23341;50.296;18.960;2023-12-20T17:00:14;48063.72;;;-144.43;100.00
37486;BME280;23341;50.296;18.960;2023-12-20T17:05:20;48079.72;;;-144.43;100.00
37486;BME280;23341;50.296;18.960;2023-12-20T17:10:26;48097.69;;;-144.43;100.00
37486;BME280;23341;50.296;18.960;2023-12-20T17:15:31;48079.72;;;-144.43;100.00
37486;BME280;23341;50.296;18.960;2023-12-20T17:20:35;48063.72;;;-144.43;100.00
37486;BME280;23341;50.296;18.960;2023-12-20T17:25:42;48089.69;;;-144.43;100.00
37486;BME280;23341;50.296;18.960;2023-12-20T17:30:46;48059.72;;;-144.43;100.00
37486;BME280;23341;50.296;18.960;2023-12-20T17:35:51;48061.72;;;-144.43;100.00
37486;BME280;23341;50.296;18.960;2023-12-20T17:40:59;48071.72;;;-144.43;100.00
37486;BME280;23341;50.296;18.960;2023-12-20T17:46:04;48091.69;;;-144.43;100.00
37486;BME280;23341;50.296;18.960;2023-12-20T17:51:09;48073.72;;;-144.43;100.00
37486;BME280;23341;50.296;18.960;2023-12-20T17:56:15;48091.69;;;-144.43;100.00
37486;BME280;23341;50.296;18.960;2023-12-20T18:01:19;48083.72;;;-144.43;100.00
37486;BME280;23341;50.296;18.960;2023-12-20T18:06:25;48067.72;;;-144.43;100.00
37486;BME280;23341;50.296;18.960;2023-12-20T18:11:31;48055.72;;;-144.43;100.00
37486;BME280;23341;50.296;18.960;2023-12-20T18:16:36;48065.72;;;-144.43;100.00
37486;BME280;23341;50.296;18.960;2023-12-20T18:21:41;48059.72;;;-144.43;100.00
37486;BME280;23341;50.296;18.960;2023-12-20T18:26:47;48079.72;;;-144.43;100.00
37486;BME280;23341;50.296;18.960;2023-12-20T18:31:51;48093.69;;;-144.43;100.00
37486;BME280;23341;50.296;18.960;2023-12-20T18:36:56;48067.72;;;-144.43;100.00
37486;BME280;23341;50.296;18.960;2023-12-20T18:42:02;48085.69;;;-144.43;100.00
37486;BME280;23341;50.296;18.960;2023-12-20T18:47:07;48081.72;;;-144.43;100.00
37486;BME280;23341;50.296;18.960;2023-12-20T18:52:13;48095.69;;;-144.43;100.00
37486;BME280;23341;50.296;18.960;2023-12-20T18:57:22;48089.69;;;-144.43;100.00
37486;BME280;23341;50.296;18.960;2023-12-20T19:02:27;48099.69;;;-144.43;100.00
37486;BME280;23341;50.296;18.960;2023-12-20T19:07:34;48061.72;;;-144.43;100.00
37486;BME280;23341;50.296;18.960;2023-12-20T19:12:40;48049.75;;;-144.43;100.00
37486;BME280;23341;50.296;18.960;2023-12-20T19:17:45;48083.72;;;-144.43;100.00
37486;BME280;23341;50.296;18.960;2023-12-20T19:22:51;48055.72;;;-144.43;100.00
37486;BME280;23341;50.296;18.960;2023-12-20T19:27:57;48125.66;;;-144.43;100.00
37486;BME280;23341;50.296;18.960;2023-12-20T19:33:01;48067.72;;;-144.43;100.00
37486;BME280;23341;50.296;18.960;2023-12-20T19:38:06;48111.69;;;-144.43;100.00
37486;BME280;23341;50.296;18.960;2023-12-20T19:43:12;48085.69;;;-144.43;100.00
37486;BME280;23341;50.296;18.960;2023-12-20T19:48:16;48079.72;;;-144.43;100.00
37486;BME280;23341;50.296;18.960;2023-12-20T19:53:21;48075.72;;;-144.43;100.00
37486;BME280;23341;50.296;18.960;2023-12-20T19:58:27;48083.72;;;-144.43;100.00
37486;BME280;23341;50.296;18.960;2023-12-20T20:03:32;48083.72;;;-144.43;100.00
37486;BME280;23341;50.296;18.960;2023-12-20T20:08:37;48091.69;;;-144.43;100.00
37486;BME280;23341;50.296;18.960;2023-12-20T20:13:43;48111.69;;;-144.43;100.00
37486;BME280;23341;50.296;18.960;2023-12-20T20:18:47;48083.72;;;-144.43;100.00
37486;BME280;23341;50.296;18.960;2023-12-20T20:23:52;48087.69;;;-144.43;100.00
37486;BME280;23341;50.296;18.960;2023-12-20T20:28:58;48091.69;;;-144.43;100.00
37486;BME280;23341;50.296;18.960;2023-12-20T20:34:03;48067.72;;;-144.43;100.00
37486;BME280;23341;50.296;18.960;2023-12-20T20:39:08;48095.69;;;-144.43;100.00
37486;BME280;23341;50.296;18.960;2023-12-20T20:44:17;48091.69;;;-144.43;100.00
37486;BME280;23341;50.296;18.960;2023-12-20T20:49:21;48103.69;;;-144.43;100.00
37486;BME280;23341;50.296;18.960;2023-12-20T20:54:27;48075.72;;;-144.43;100.00
37486;BME280;23341;50.296;18.960;2023-12-20T20:59:33;48057.72;;;-144.43;100.00
37486;BME280;23341;50.296;18.960;2023-12-20T21:04:38;48059.72;;;-144.43;100.00
37486;BME280;23341;50.296;18.960;2023-12-20T21:09:42;48075.72;;;-144.43;100.00
37486;BME280;23341;50.296;18.960;2023-12-20T21:14:49;48095.69;;;-144.43;100.00
37486;BME280;23341;50.296;18.960;2023-12-20T21:19:54;48065.72;;;-144.43;100.00
37486;BME280;23341;50.296;18.960;2023-12-20T21:24:58;48075.72;;;-144.43;100.00
37486;BME280;23341;50.296;18.960;2023-12-20T21:30:06;48077.72;;;-144.43;100.00
37486;BME280;23341;50.296;18.960;2023-12-20T21:35:13;48075.72;;;-144.43;100.00
37486;BME280;23341;50.296;18.960;2023-12-20T21:40:18;48079.72;;;-144.43;100.00
37486;BME280;23341;50.296;18.960;2023-12-20T21:45:24;48085.69;;;-144.43;100.00
37486;BME280;23341;50.296;18.960;2023-12-20T21:50:29;48067.72;;;-144.43;100.00
37486;BME280;23341;50.296;18.960;2023-12-20T21:55:34;48095.69;;;-144.43;100.00
37486;BME280;23341;50.296;18.960;2023-12-20T22:00:40;48095.69;;;-144.43;100.00
37486;BME280;23341;50.296;18.960;2023-12-20T22:05:44;48101.69;;;-144.43;100.00
37486;BME280;23341;50.296;18.960;2023-12-20T22:10:49;48067.72;;;-144.43;100.00
37486;BME280;23341;50.296;18.960;2023-12-20T22:15:55;48071.72;;;-144.43;100.00
37486;BME280;23341;50.296;18.960;2023-12-20T22:21:00;48075.72;;;-144.43;100.00
37486;BME280;23341;50.296;18.960;2023-12-20T22:26:04;48107.69;;;-144.43;100.00
37486;BME280;23341;50.296;18.960;2023-12-20T22:31:12;48099.69;;;-144.43;100.00
37486;BME280;23341;50.296;18.960;2023-12-20T22:36:17;48071.72;;;-144.43;100.00
37486;BME280;23341;50.296;18.960;2023-12-20T22:41:22;48091.69;;;-144.43;100.00
37486;BME280;23341;50.296;18.960;2023-12-20T22:46:28;48079.72;;;-144.43;100.00
37486;BME280;23341;50.296;18.960;2023-12-20T22:51:33;48075.72;;;-144.43;100.00
37486;BME280;23341;50.296;18.960;2023-12-20T22:56:37;48081.72;;;-144.43;100.00
37486;BME280;23341;50.296;18.960;2023-12-20T23:01:43;48075.72;;;-144.43;100.00
37486;BME280;23341;50.296;18.960;2023-12-20T23:06:48;48079.72;;;-144.43;100.00
37486;BME280;23341;50.296;18.960;2023-12-20T23:11:53;48075.72;;;-144.43;100.00
37486;BME280;23341;50.296;18.960;2023-12-20T23:16:59;48051.75;;;-144.43;100.00
37486;BME280;23341;50.296;18.960;2023-12-20T23:22:03;48067.72;;;-144.43;100.00
37486;BME280;23341;50.296;18.960;2023-12-20T23:27:08;48071.72;;;-144.43;100.00
37486;BME280;23341;50.296;18.960;2023-12-20T23:32:14;48073.72;;;-144.43;100.00
37486;BME280;23341;50.296;18.960;2023-12-20T23:37:18;48071.72;;;-144.43;100.00
37486;BME280;23341;50.296;18.960;2023-12-20T23:42:23;48071.72;;;-144.43;100.00
37486;BME280;23341;50.296;18.960;2023-12-20T23:47:29;48071.72;;;-144.43;100.00
37486;BME280;23341;50.296;18.960;2023-12-20T23:52:33;48087.69;;;-144.43;100.00
37486;BME280;23341;50.296;18.960;2023-12-20T23:57:38;48095.69;;;-144.43;100.00
